sensor_id;sensor_type;location;lat;lon;timestamp;temperature;humidity
5978;DHT22;3015;51.390;12.256;2023-03-01T00:00:37;-4.80;56.20
5978;DHT22;3015;51.390;12.256;2023-03-01T00:03:03;-4.80;1.00
5978;DHT22;3015;51.390;12.256;2023-03-01T00:05:28;-4.80;99.90
5978;DHT22;3015;51.390;12.256;2023-03-01T00:07:54;-4.80;1.00
5978;DHT22;3015;51.390;12.256;2023-03-01T00:10:20;-4.80;1.00
5978;DHT22;3015;51.390;12.256;2023-03-01T00:12:45;-4.70;1.00
5978;DHT22;3015;51.390;12.256;2023-03-01T00:15:11;-4.80;1.00
5978;DHT22;3015;51.390;12.256;2023-03-01T00:17:37;-4.80;82.20
5978;DHT22;3015;51.390;12.256;2023-03-01T00:20:03;-4.70;1.00
5978;DHT22;3015;51.390;12.256;2023-03-01T00:22:33;-4.80;99.90
5978;DHT22;3015;51.390;12.256;2023-03-01T00:24:58;-4.80;99.90
5978;DHT22;3015;51.390;12.256;2023-03-01T00:27:24;-4.80;99.90
5978;DHT22;3015;51.390;12.256;2023-03-01T00:29:49;-4.80;99.90
5978;DHT22;3015;51.390;12.256;2023-03-01T00:32:15;-4.90;99.90
5978;DHT22;3015;51.390;12.256;2023-03-01T00:34:42;-4.90;1.00
5978;DHT22;3015;51.390;12.256;2023-03-01T00:37:07;-4.90;99.90
5978;DHT22;3015;51.390;12.256;2023-03-01T00:39:33;-4.90;99.90
5978;DHT22;3015;51.390;12.256;2023-03-01T00:41:59;-4.80;1.00
5978;DHT22;3015;51.390;12.256;2023-03-01T00:44:24;-4.80;99.90
5978;DHT22;3015;51.390;12.256;2023-03-01T00:46:50;-4.70;13.20
5978;DHT22;3015;51.390;12.256;2023-03-01T00:49:15;-4.70;99.90
5978;DHT22;3015;51.390;12.256;2023-03-01T00:51:41;-4.80;1.00
5978;DHT22;3015;51.390;12.256;2023-03-01T00:54:10;-4.90;1.00
5978;DHT22;3015;51.390;12.256;2023-03-01T00:56:35;-5.00;99.90
5978;DHT22;3015;51.390;12.256;2023-03-01T00:59:01;-5.00;99.90
5978;DHT22;3015;51.390;12.256;2023-03-01T01:01:29;-5.10;99.90
5978;DHT22;3015;51.390;12.256;2023-03-01T01:03:58;-5.10;1.00
5978;DHT22;3015;51.390;12.256;2023-03-01T01:06:30;-5.10;99.90
5978;DHT22;3015;51.390;12.256;2023-03-01T01:08:57;-5.10;99.90
5978;DHT22;3015;51.390;12.256;2023-03-01T01:11:24;-5.10;99.90
5978;DHT22;3015;51.390;12.256;2023-03-01T01:13:51;-5.20;99.90
5978;DHT22;3015;51.390;12.256;2023-03-01T01:16:18;-5.20;99.90
5978;DHT22;3015;51.390;12.256;2023-03-01T01:18:44;-5.20;1.00
5978;DHT22;3015;51.390;12.256;2023-03-01T01:21:12;-5.30;99.90
5978;DHT22;3015;51.390;12.256;2023-03-01T01:23:39;-5.30;99.90
5978;DHT22;3015;51.390;12.256;2023-03-01T01:26:10;-5.30;1.00
5978;DHT22;3015;51.390;12.256;2023-03-01T01:28:36;-5.30;1.00
5978;DHT22;3015;51.390;12.256;2023-03-01T01:31:03;-5.30;1.00
5978;DHT22;3015;51.390;12.256;2023-03-01T01:33:28;-5.10;1.00
5978;DHT22;3015;51.390;12.256;2023-03-01T01:35:54;-5.20;99.90
5978;DHT22;3015;51.390;12.256;2023-03-01T01:38:20;-5.30;1.00
5978;DHT22;3015;51.390;12.256;2023-03-01T01:40:47;-5.40;1.00
5978;DHT22;3015;51.390;12.256;2023-03-01T01:46:32;-5.40;1.00
5978;DHT22;3015;51.390;12.256;2023-03-01T01:51:45;-5.30;24.90
5978;DHT22;3015;51.390;12.256;2023-03-01T01:54:41;-5.40;99.90
5978;DHT22;3015;51.390;12.256;2023-03-01T01:57:12;-5.40;1.00
5978;DHT22;3015;51.390;12.256;2023-03-01T01:59:39;-5.40;99.90
5978;DHT22;3015;51.390;12.256;2023-03-01T02:02:07;-5.50;99.90
5978;DHT22;3015;51.390;12.256;2023-03-01T02:04:33;-5.60;99.90
5978;DHT22;3015;51.390;12.256;2023-03-01T02:07:05;-5.60;99.90
5978;DHT22;3015;51.390;12.256;2023-03-01T02:09:32;-5.60;99.90
5978;DHT22;3015;51.390;12.256;2023-03-01T02:11:59;-5.60;99.90
5978;DHT22;3015;51.390;12.256;2023-03-01T02:14:25;-5.60;23.20
5978;DHT22;3015;51.390;12.256;2023-03-01T02:16:51;-5.60;99.90
5978;DHT22;3015;51.390;12.256;2023-03-01T02:19:48;-5.60;1.00
5978;DHT22;3015;51.390;12.256;2023-03-01T02:22:36;-5.60;99.90
5978;DHT22;3015;51.390;12.256;2023-03-01T02:30:41;-5.70;1.00
5978;DHT22;3015;51.390;12.256;2023-03-01T02:33:28;-5.70;1.00
5978;DHT22;3015;51.390;12.256;2023-03-01T02:35:59;-5.70;1.00
5978;DHT22;3015;51.390;12.256;2023-03-01T02:38:25;-5.70;1.00
5978;DHT22;3015;51.390;12.256;2023-03-01T02:44:13;-5.80;1.00
5978;DHT22;3015;51.390;12.256;2023-03-01T02:46:53;-5.90;99.90
5978;DHT22;3015;51.390;12.256;2023-03-01T02:49:30;-5.90;99.90
5978;DHT22;3015;51.390;12.256;2023-03-01T02:55:02;-6.00;99.90
5978;DHT22;3015;51.390;12.256;2023-03-01T02:57:30;-6.00;1.00
5978;DHT22;3015;51.390;12.256;2023-03-01T02:59:59;-5.90;1.00
5978;DHT22;3015;51.390;12.256;2023-03-01T03:02:29;-6.00;99.90
5978;DHT22;3015;51.390;12.256;2023-03-01T03:05:11;-6.00;99.90
5978;DHT22;3015;51.390;12.256;2023-03-01T03:07:40;-6.00;1.00
5978;DHT22;3015;51.390;12.256;2023-03-01T03:10:10;-6.00;99.90
5978;DHT22;3015;51.390;12.256;2023-03-01T03:12:37;-6.10;99.90
5978;DHT22;3015;51.390;12.256;2023-03-01T03:15:03;-6.10;99.60
5978;DHT22;3015;51.390;12.256;2023-03-01T03:17:35;-6.10;99.90
5978;DHT22;3015;51.390;12.256;2023-03-01T03:20:01;-6.20;99.90
5978;DHT22;3015;51.390;12.256;2023-03-01T03:22:28;-6.20;51.90
5978;DHT22;3015;51.390;12.256;2023-03-01T03:24:54;-6.30;1.00
5978;DHT22;3015;51.390;12.256;2023-03-01T03:27:19;-6.20;1.00
5978;DHT22;3015;51.390;12.256;2023-03-01T03:32:10;-6.30;99.90
5978;DHT22;3015;51.390;12.256;2023-03-01T03:34:36;-6.20;99.90
5978;DHT22;3015;51.390;12.256;2023-03-01T03:37:01;-6.30;44.90
5978;DHT22;3015;51.390;12.256;2023-03-01T03:39:27;-6.30;99.90
5978;DHT22;3015;51.390;12.256;2023-03-01T03:41:53;-6.40;97.70
5978;DHT22;3015;51.390;12.256;2023-03-01T03:44:20;-6.40;85.90
5978;DHT22;3015;51.390;12.256;2023-03-01T03:46:45;-6.30;99.90
5978;DHT22;3015;51.390;12.256;2023-03-01T03:49:11;-6.30;99.90
5978;DHT22;3015;51.390;12.256;2023-03-01T03:51:36;-6.30;99.90
5978;DHT22;3015;51.390;12.256;2023-03-01T03:54:02;-6.30;99.90
5978;DHT22;3015;51.390;12.256;2023-03-01T03:56:27;-6.40;99.90
5978;DHT22;3015;51.390;12.256;2023-03-01T03:58:53;-6.40;99.90
5978;DHT22;3015;51.390;12.256;2023-03-01T04:01:19;-6.40;69.30
5978;DHT22;3015;51.390;12.256;2023-03-01T04:03:44;-6.40;1.00
5978;DHT22;3015;51.390;12.256;2023-03-01T04:06:14;-6.50;1.00
5978;DHT22;3015;51.390;12.256;2023-03-01T04:08:40;-6.40;99.90
5978;DHT22;3015;51.390;12.256;2023-03-01T04:11:06;-6.40;61.80
5978;DHT22;3015;51.390;12.256;2023-03-01T04:13:52;-6.40;58.50
5978;DHT22;3015;51.390;12.256;2023-03-01T04:16:18;-6.40;99.90
5978;DHT22;3015;51.390;12.256;2023-03-01T04:18:44;-6.40;66.40
5978;DHT22;3015;51.390;12.256;2023-03-01T04:21:10;-6.40;99.90
5978;DHT22;3015;51.390;12.256;2023-03-01T04:23:36;-6.40;1.00
5978;DHT22;3015;51.390;12.256;2023-03-01T04:26:03;-6.20;1.00
5978;DHT22;3015;51.390;12.256;2023-03-01T04:28:37;-6.20;99.90
5978;DHT22;3015;51.390;12.256;2023-03-01T04:31:09;-6.20;99.90
5978;DHT22;3015;51.390;12.256;2023-03-01T04:33:40;-6.10;99.90
5978;DHT22;3015;51.390;12.256;2023-03-01T04:36:06;-6.20;99.90
5978;DHT22;3015;51.390;12.256;2023-03-01T04:38:34;-6.10;1.00
5978;DHT22;3015;51.390;12.256;2023-03-01T04:41:01;-6.00;1.00
5978;DHT22;3015;51.390;12.256;2023-03-01T04:43:28;-6.00;99.90
5978;DHT22;3015;51.390;12.256;2023-03-01T04:45:54;-5.90;1.00
5978;DHT22;3015;51.390;12.256;2023-03-01T04:48:19;-5.80;99.90
5978;DHT22;3015;51.390;12.256;2023-03-01T04:50:45;-5.80;1.00
5978;DHT22;3015;51.390;12.256;2023-03-01T04:53:11;-5.70;99.90
5978;DHT22;3015;51.390;12.256;2023-03-01T04:55:36;-5.60;99.90
5978;DHT22;3015;51.390;12.256;2023-03-01T04:58:02;-5.50;99.90
5978;DHT22;3015;51.390;12.256;2023-03-01T05:00:27;-5.40;80.10
5978;DHT22;3015;51.390;12.256;2023-03-01T05:02:54;-5.30;99.90
5978;DHT22;3015;51.390;12.256;2023-03-01T05:05:29;-5.30;1.00
5978;DHT22;3015;51.390;12.256;2023-03-01T05:07:58;-5.10;99.90
5978;DHT22;3015;51.390;12.256;2023-03-01T05:10:26;-5.10;99.90
5978;DHT22;3015;51.390;12.256;2023-03-01T05:12:52;-5.00;99.90
5978;DHT22;3015;51.390;12.256;2023-03-01T05:15:18;-5.10;1.00
5978;DHT22;3015;51.390;12.256;2023-03-01T05:17:49;-5.10;1.00
5978;DHT22;3015;51.390;12.256;2023-03-01T05:20:15;-5.10;1.00
5978;DHT22;3015;51.390;12.256;2023-03-01T05:22:40;-5.10;1.00
5978;DHT22;3015;51.390;12.256;2023-03-01T05:25:06;-5.20;1.00
5978;DHT22;3015;51.390;12.256;2023-03-01T05:27:33;-5.10;99.90
5978;DHT22;3015;51.390;12.256;2023-03-01T05:29:58;-5.10;1.70
5978;DHT22;3015;51.390;12.256;2023-03-01T05:32:24;-5.10;99.90
5978;DHT22;3015;51.390;12.256;2023-03-01T05:34:49;-5.20;1.00
5978;DHT22;3015;51.390;12.256;2023-03-01T05:37:17;-5.10;1.00
5978;DHT22;3015;51.390;12.256;2023-03-01T05:39:43;-5.20;1.00
5978;DHT22;3015;51.390;12.256;2023-03-01T05:42:10;-5.20;1.00
5978;DHT22;3015;51.390;12.256;2023-03-01T05:44:36;-5.10;99.90
5978;DHT22;3015;51.390;12.256;2023-03-01T05:47:02;-5.20;1.00
5978;DHT22;3015;51.390;12.256;2023-03-01T05:49:28;-5.20;1.00
5978;DHT22;3015;51.390;12.256;2023-03-01T05:51:54;-5.30;1.00
5978;DHT22;3015;51.390;12.256;2023-03-01T05:54:21;-5.30;99.90
5978;DHT22;3015;51.390;12.256;2023-03-01T05:56:47;-5.40;99.90
5978;DHT22;3015;51.390;12.256;2023-03-01T05:59:12;-5.50;99.90
5978;DHT22;3015;51.390;12.256;2023-03-01T06:01:39;-5.40;1.00
5978;DHT22;3015;51.390;12.256;2023-03-01T06:04:05;-5.40;1.00
5978;DHT22;3015;51.390;12.256;2023-03-01T06:06:34;-5.50;92.70
5978;DHT22;3015;51.390;12.256;2023-03-01T06:08:59;-5.50;99.90
5978;DHT22;3015;51.390;12.256;2023-03-01T06:11:25;-5.40;1.00
5978;DHT22;3015;51.390;12.256;2023-03-01T06:13:51;-5.50;99.90
5978;DHT22;3015;51.390;12.256;2023-03-01T06:16:16;-5.50;1.00
5978;DHT22;3015;51.390;12.256;2023-03-01T06:18:42;-5.60;99.80
5978;DHT22;3015;51.390;12.256;2023-03-01T06:21:08;-5.40;1.00
5978;DHT22;3015;51.390;12.256;2023-03-01T06:23:34;-5.30;1.00
5978;DHT22;3015;51.390;12.256;2023-03-01T06:26:00;-5.00;99.90
5978;DHT22;3015;51.390;12.256;2023-03-01T06:28:29;-4.60;99.90
5978;DHT22;3015;51.390;12.256;2023-03-01T06:30:55;-4.30;1.00
5978;DHT22;3015;51.390;12.256;2023-03-01T06:33:21;-3.90;99.90
5978;DHT22;3015;51.390;12.256;2023-03-01T06:35:48;-3.80;1.00
5978;DHT22;3015;51.390;12.256;2023-03-01T06:38:14;-4.00;99.90
5978;DHT22;3015;51.390;12.256;2023-03-01T06:40:40;-4.10;99.90
5978;DHT22;3015;51.390;12.256;2023-03-01T06:43:07;-4.30;99.90
5978;DHT22;3015;51.390;12.256;2023-03-01T06:45:33;-4.50;99.90
5978;DHT22;3015;51.390;12.256;2023-03-01T06:48:06;-4.30;1.00
5978;DHT22;3015;51.390;12.256;2023-03-01T06:50:32;-4.40;1.00
5978;DHT22;3015;51.390;12.256;2023-03-01T06:52:58;-4.40;1.00
5978;DHT22;3015;51.390;12.256;2023-03-01T06:55:24;-4.50;99.90
5978;DHT22;3015;51.390;12.256;2023-03-01T06:58:00;-4.50;99.90
5978;DHT22;3015;51.390;12.256;2023-03-01T07:00:27;-4.40;1.00
5978;DHT22;3015;51.390;12.256;2023-03-01T07:02:53;-4.30;99.60
5978;DHT22;3015;51.390;12.256;2023-03-01T07:05:19;-4.30;1.00
5978;DHT22;3015;51.390;12.256;2023-03-01T07:07:44;-4.20;99.90
5978;DHT22;3015;51.390;12.256;2023-03-01T07:10:10;-4.10;1.00
5978;DHT22;3015;51.390;12.256;2023-03-01T07:12:36;-4.00;99.90
5978;DHT22;3015;51.390;12.256;2023-03-01T07:15:02;-3.80;99.90
5978;DHT22;3015;51.390;12.256;2023-03-01T07:17:29;-3.60;99.90
5978;DHT22;3015;51.390;12.256;2023-03-01T07:19:54;-3.50;99.90
5978;DHT22;3015;51.390;12.256;2023-03-01T07:22:20;-3.30;1.00
5978;DHT22;3015;51.390;12.256;2023-03-01T07:24:45;-3.20;99.90
5978;DHT22;3015;51.390;12.256;2023-03-01T07:27:11;-2.90;99.90
5978;DHT22;3015;51.390;12.256;2023-03-01T07:29:37;-2.70;1.00
5978;DHT22;3015;51.390;12.256;2023-03-01T07:32:03;-2.50;7.20
5978;DHT22;3015;51.390;12.256;2023-03-01T07:34:29;-2.40;99.90
5978;DHT22;3015;51.390;12.256;2023-03-01T07:36:55;-2.30;26.30
5978;DHT22;3015;51.390;12.256;2023-03-01T07:39:21;-2.20;32.30
5978;DHT22;3015;51.390;12.256;2023-03-01T07:41:48;-2.10;1.00
5978;DHT22;3015;51.390;12.256;2023-03-01T07:44:14;-1.90;99.90
5978;DHT22;3015;51.390;12.256;2023-03-01T07:46:40;-1.70;99.90
5978;DHT22;3015;51.390;12.256;2023-03-01T07:49:06;-1.60;25.30
5978;DHT22;3015;51.390;12.256;2023-03-01T07:51:32;-1.50;1.00
5978;DHT22;3015;51.390;12.256;2023-03-01T07:53:57;-1.40;1.00
5978;DHT22;3015;51.390;12.256;2023-03-01T07:56:23;-1.20;99.90
5978;DHT22;3015;51.390;12.256;2023-03-01T07:58:49;-1.00;1.00
5978;DHT22;3015;51.390;12.256;2023-03-01T08:01:17;-0.90;99.90
5978;DHT22;3015;51.390;12.256;2023-03-01T08:03:43;-0.80;99.90
5978;DHT22;3015;51.390;12.256;2023-03-01T08:06:10;-0.70;99.90
5978;DHT22;3015;51.390;12.256;2023-03-01T08:08:37;-0.50;99.90
5978;DHT22;3015;51.390;12.256;2023-03-01T08:11:04;-0.30;99.90
5978;DHT22;3015;51.390;12.256;2023-03-01T08:13:30;-0.20;1.00
5978;DHT22;3015;51.390;12.256;2023-03-01T08:16:08;0.00;1.00
5978;DHT22;3015;51.390;12.256;2023-03-01T08:18:34;0.10;1.00
5978;DHT22;3015;51.390;12.256;2023-03-01T08:21:22;0.40;38.00
5978;DHT22;3015;51.390;12.256;2023-03-01T08:23:47;2.30;1.00
5978;DHT22;3015;51.390;12.256;2023-03-01T08:26:15;5.30;1.00
5978;DHT22;3015;51.390;12.256;2023-03-01T08:28:42;7.70;99.90
5978;DHT22;3015;51.390;12.256;2023-03-01T08:31:18;9.50;99.90
5978;DHT22;3015;51.390;12.256;2023-03-01T08:33:45;11.40;99.90
5978;DHT22;3015;51.390;12.256;2023-03-01T08:36:16;12.70;99.90
5978;DHT22;3015;51.390;12.256;2023-03-01T08:38:42;14.10;99.90
5978;DHT22;3015;51.390;12.256;2023-03-01T08:41:07;14.80;99.90
5978;DHT22;3015;51.390;12.256;2023-03-01T08:43:33;15.40;99.90
5978;DHT22;3015;51.390;12.256;2023-03-01T08:45:59;16.20;99.90
5978;DHT22;3015;51.390;12.256;2023-03-01T08:48:25;16.90;99.90
5978;DHT22;3015;51.390;12.256;2023-03-01T08:50:52;18.00;99.90
5978;DHT22;3015;51.390;12.256;2023-03-01T08:53:18;18.30;99.90
5978;DHT22;3015;51.390;12.256;2023-03-01T08:55:43;18.50;99.90
5978;DHT22;3015;51.390;12.256;2023-03-01T08:58:09;18.80;99.90
5978;DHT22;3015;51.390;12.256;2023-03-01T09:00:35;19.20;99.90
5978;DHT22;3015;51.390;12.256;2023-03-01T09:03:01;18.90;99.90
5978;DHT22;3015;51.390;12.256;2023-03-01T09:05:26;19.00;99.90
5978;DHT22;3015;51.390;12.256;2023-03-01T09:07:52;19.00;99.90
5978;DHT22;3015;51.390;12.256;2023-03-01T09:10:17;19.50;99.90
5978;DHT22;3015;51.390;12.256;2023-03-01T09:12:43;20.00;99.90
5978;DHT22;3015;51.390;12.256;2023-03-01T09:15:09;20.70;99.90
5978;DHT22;3015;51.390;12.256;2023-03-01T09:17:35;20.80;99.90
5978;DHT22;3015;51.390;12.256;2023-03-01T09:20:01;20.70;99.90
5978;DHT22;3015;51.390;12.256;2023-03-01T09:22:26;21.20;99.90
5978;DHT22;3015;51.390;12.256;2023-03-01T09:24:52;21.80;99.90
5978;DHT22;3015;51.390;12.256;2023-03-01T09:27:17;21.90;99.90
5978;DHT22;3015;51.390;12.256;2023-03-01T09:29:45;22.10;99.90
5978;DHT22;3015;51.390;12.256;2023-03-01T09:32:11;21.60;99.90
5978;DHT22;3015;51.390;12.256;2023-03-01T09:34:36;21.80;99.90
5978;DHT22;3015;51.390;12.256;2023-03-01T09:37:20;21.60;99.90
5978;DHT22;3015;51.390;12.256;2023-03-01T09:39:46;21.60;99.90
5978;DHT22;3015;51.390;12.256;2023-03-01T09:42:12;21.40;99.90
5978;DHT22;3015;51.390;12.256;2023-03-01T09:47:18;21.20;99.90
5978;DHT22;3015;51.390;12.256;2023-03-01T09:49:52;21.50;99.90
5978;DHT22;3015;51.390;12.256;2023-03-01T09:54:55;21.30;99.90
5978;DHT22;3015;51.390;12.256;2023-03-01T09:57:39;22.00;99.90
5978;DHT22;3015;51.390;12.256;2023-03-01T10:05:33;21.90;99.90
5978;DHT22;3015;51.390;12.256;2023-03-01T10:10:55;22.60;99.90
5978;DHT22;3015;51.390;12.256;2023-03-01T10:13:33;22.40;99.90
5978;DHT22;3015;51.390;12.256;2023-03-01T10:16:25;22.60;99.90
5978;DHT22;3015;51.390;12.256;2023-03-01T10:18:58;23.00;99.90
5978;DHT22;3015;51.390;12.256;2023-03-01T10:21:28;22.70;99.90
5978;DHT22;3015;51.390;12.256;2023-03-01T10:24:12;23.20;99.90
5978;DHT22;3015;51.390;12.256;2023-03-01T10:27:09;22.70;99.90
5978;DHT22;3015;51.390;12.256;2023-03-01T10:32:38;21.80;99.90
5978;DHT22;3015;51.390;12.256;2023-03-01T10:35:17;22.20;99.90
5978;DHT22;3015;51.390;12.256;2023-03-01T10:38:17;22.90;99.90
5978;DHT22;3015;51.390;12.256;2023-03-01T10:40:56;22.60;99.90
5978;DHT22;3015;51.390;12.256;2023-03-01T10:43:25;23.20;99.90
5978;DHT22;3015;51.390;12.256;2023-03-01T10:45:52;23.10;99.90
5978;DHT22;3015;51.390;12.256;2023-03-01T10:48:20;23.30;99.90
5978;DHT22;3015;51.390;12.256;2023-03-01T10:53:29;22.80;99.90
5978;DHT22;3015;51.390;12.256;2023-03-01T10:56:03;23.30;99.90
5978;DHT22;3015;51.390;12.256;2023-03-01T10:58:30;23.40;99.90
5978;DHT22;3015;51.390;12.256;2023-03-01T11:06:36;23.20;99.90
5978;DHT22;3015;51.390;12.256;2023-03-01T11:09:22;23.30;99.90
5978;DHT22;3015;51.390;12.256;2023-03-01T11:11:56;23.30;99.90
5978;DHT22;3015;51.390;12.256;2023-03-01T11:14:27;23.20;99.90
5978;DHT22;3015;51.390;12.256;2023-03-01T11:17:11;23.20;99.90
5978;DHT22;3015;51.390;12.256;2023-03-01T11:19:37;22.90;99.90
5978;DHT22;3015;51.390;12.256;2023-03-01T11:22:07;22.60;99.90
5978;DHT22;3015;51.390;12.256;2023-03-01T11:24:48;23.10;99.90
5978;DHT22;3015;51.390;12.256;2023-03-01T11:27:33;22.90;99.90
5978;DHT22;3015;51.390;12.256;2023-03-01T11:30:05;22.00;99.90
5978;DHT22;3015;51.390;12.256;2023-03-01T11:32:40;21.50;99.90
5978;DHT22;3015;51.390;12.256;2023-03-01T11:35:26;21.50;99.90
5978;DHT22;3015;51.390;12.256;2023-03-01T11:43:26;21.20;99.90
5978;DHT22;3015;51.390;12.256;2023-03-01T12:11:22;22.50;99.90
5978;DHT22;3015;51.390;12.256;2023-03-01T12:14:07;22.00;99.90
5978;DHT22;3015;51.390;12.256;2023-03-01T12:35:40;21.20;99.90
5978;DHT22;3015;51.390;12.256;2023-03-01T12:38:32;20.80;99.90
5978;DHT22;3015;51.390;12.256;2023-03-01T12:49:18;20.80;99.90
5978;DHT22;3015;51.390;12.256;2023-03-01T12:54:37;21.90;99.90
5978;DHT22;3015;51.390;12.256;2023-03-01T13:00:10;22.10;99.90
5978;DHT22;3015;51.390;12.256;2023-03-01T13:03:19;22.30;99.90
5978;DHT22;3015;51.390;12.256;2023-03-01T13:06:23;22.20;99.90
5978;DHT22;3015;51.390;12.256;2023-03-01T13:09:07;21.90;99.90
5978;DHT22;3015;51.390;12.256;2023-03-01T13:11:41;21.90;99.90
5978;DHT22;3015;51.390;12.256;2023-03-01T13:16:55;22.50;99.90
5978;DHT22;3015;51.390;12.256;2023-03-01T13:19:21;22.80;99.90
5978;DHT22;3015;51.390;12.256;2023-03-01T13:21:49;22.80;99.90
5978;DHT22;3015;51.390;12.256;2023-03-01T13:24:38;22.80;99.90
5978;DHT22;3015;51.390;12.256;2023-03-01T13:29:52;22.20;99.90
5978;DHT22;3015;51.390;12.256;2023-03-01T13:34:56;21.80;99.90
5978;DHT22;3015;51.390;12.256;2023-03-01T13:37:28;21.70;99.90
5978;DHT22;3015;51.390;12.256;2023-03-01T13:39:59;21.00;99.90
5978;DHT22;3015;51.390;12.256;2023-03-01T13:42:41;21.10;99.90
5978;DHT22;3015;51.390;12.256;2023-03-01T13:45:47;20.60;99.90
5978;DHT22;3015;51.390;12.256;2023-03-01T13:48:22;20.20;99.90
5978;DHT22;3015;51.390;12.256;2023-03-01T13:51:01;20.00;99.90
5978;DHT22;3015;51.390;12.256;2023-03-01T13:53:31;20.00;99.90
5978;DHT22;3015;51.390;12.256;2023-03-01T13:56:02;19.50;99.90
5978;DHT22;3015;51.390;12.256;2023-03-01T13:58:30;19.30;99.90
5978;DHT22;3015;51.390;12.256;2023-03-01T14:00:59;19.10;99.90
5978;DHT22;3015;51.390;12.256;2023-03-01T14:03:25;18.90;99.90
5978;DHT22;3015;51.390;12.256;2023-03-01T14:08:29;18.40;99.90
5978;DHT22;3015;51.390;12.256;2023-03-01T14:13:54;18.90;99.90
5978;DHT22;3015;51.390;12.256;2023-03-01T14:16:49;19.00;99.90
5978;DHT22;3015;51.390;12.256;2023-03-01T14:19:19;18.40;99.90
5978;DHT22;3015;51.390;12.256;2023-03-01T14:22:20;18.60;99.90
5978;DHT22;3015;51.390;12.256;2023-03-01T14:25:33;18.60;99.90
5978;DHT22;3015;51.390;12.256;2023-03-01T14:27:37;18.40;99.90
5978;DHT22;3015;51.390;12.256;2023-03-01T14:30:15;18.60;99.90
5978;DHT22;3015;51.390;12.256;2023-03-01T14:32:43;18.40;99.90
5978;DHT22;3015;51.390;12.256;2023-03-01T14:35:22;18.00;99.90
5978;DHT22;3015;51.390;12.256;2023-03-01T14:37:48;17.90;99.90
5978;DHT22;3015;51.390;12.256;2023-03-01T14:40:32;18.20;99.90
5978;DHT22;3015;51.390;12.256;2023-03-01T14:43:00;18.00;99.90
5978;DHT22;3015;51.390;12.256;2023-03-01T14:45:29;17.60;99.90
5978;DHT22;3015;51.390;12.256;2023-03-01T14:47:59;17.60;99.90
5978;DHT22;3015;51.390;12.256;2023-03-01T14:50:31;17.50;99.90
5978;DHT22;3015;51.390;12.256;2023-03-01T14:53:00;17.60;99.90
5978;DHT22;3015;51.390;12.256;2023-03-01T14:55:34;17.30;99.90
5978;DHT22;3015;51.390;12.256;2023-03-01T14:58:04;17.10;99.90
5978;DHT22;3015;51.390;12.256;2023-03-01T15:00:31;16.90;99.90
5978;DHT22;3015;51.390;12.256;2023-03-01T15:03:02;16.70;99.90
5978;DHT22;3015;51.390;12.256;2023-03-01T15:05:32;16.70;99.90
5978;DHT22;3015;51.390;12.256;2023-03-01T15:08:01;16.60;99.90
5978;DHT22;3015;51.390;12.256;2023-03-01T15:10:30;16.40;99.90
5978;DHT22;3015;51.390;12.256;2023-03-01T15:13:13;16.10;99.90
5978;DHT22;3015;51.390;12.256;2023-03-01T15:15:43;15.80;99.90
5978;DHT22;3015;51.390;12.256;2023-03-01T15:18:28;15.20;99.90
5978;DHT22;3015;51.390;12.256;2023-03-01T15:20:55;15.00;99.90
5978;DHT22;3015;51.390;12.256;2023-03-01T15:23:26;14.70;99.90
5978;DHT22;3015;51.390;12.256;2023-03-01T15:25:53;14.50;99.90
5978;DHT22;3015;51.390;12.256;2023-03-01T15:28:31;14.10;99.90
5978;DHT22;3015;51.390;12.256;2023-03-01T15:31:02;13.70;99.90
5978;DHT22;3015;51.390;12.256;2023-03-01T15:33:32;13.50;99.90
5978;DHT22;3015;51.390;12.256;2023-03-01T15:36:30;13.10;99.90
5978;DHT22;3015;51.390;12.256;2023-03-01T16:20:50;12.80;99.90
5978;DHT22;3015;51.390;12.256;2023-03-01T16:23:15;7.40;99.90
5978;DHT22;3015;51.390;12.256;2023-03-01T16:25:41;7.10;99.90
5978;DHT22;3015;51.390;12.256;2023-03-01T16:28:07;6.90;99.90
5978;DHT22;3015;51.390;12.256;2023-03-01T16:30:39;6.60;99.90
5978;DHT22;3015;51.390;12.256;2023-03-01T16:33:05;6.30;99.90
5978;DHT22;3015;51.390;12.256;2023-03-01T16:35:33;6.10;99.90
5978;DHT22;3015;51.390;12.256;2023-03-01T16:37:59;5.90;99.90
5978;DHT22;3015;51.390;12.256;2023-03-01T16:40:27;5.70;99.90
5978;DHT22;3015;51.390;12.256;2023-03-01T16:42:54;5.50;99.90
5978;DHT22;3015;51.390;12.256;2023-03-01T16:45:26;5.40;99.90
5978;DHT22;3015;51.390;12.256;2023-03-01T16:47:53;5.10;99.90
5978;DHT22;3015;51.390;12.256;2023-03-01T16:50:18;4.80;99.90
5978;DHT22;3015;51.390;12.256;2023-03-01T16:52:44;4.60;99.90
5978;DHT22;3015;51.390;12.256;2023-03-01T16:55:10;4.40;99.90
5978;DHT22;3015;51.390;12.256;2023-03-01T16:57:37;4.20;99.90
5978;DHT22;3015;51.390;12.256;2023-03-01T17:00:07;4.00;99.90
5978;DHT22;3015;51.390;12.256;2023-03-01T17:02:35;3.80;99.90
5978;DHT22;3015;51.390;12.256;2023-03-01T17:05:01;3.70;99.90
5978;DHT22;3015;51.390;12.256;2023-03-01T17:07:28;3.50;99.90
5978;DHT22;3015;51.390;12.256;2023-03-01T17:09:54;3.40;99.90
5978;DHT22;3015;51.390;12.256;2023-03-01T17:12:19;3.30;99.90
5978;DHT22;3015;51.390;12.256;2023-03-01T17:14:45;3.10;99.90
5978;DHT22;3015;51.390;12.256;2023-03-01T17:17:11;2.90;99.90
5978;DHT22;3015;51.390;12.256;2023-03-01T17:19:37;2.70;99.90
5978;DHT22;3015;51.390;12.256;2023-03-01T17:22:07;2.50;99.90
5978;DHT22;3015;51.390;12.256;2023-03-01T17:24:34;2.40;99.90
5978;DHT22;3015;51.390;12.256;2023-03-01T17:27:01;2.10;99.90
5978;DHT22;3015;51.390;12.256;2023-03-01T17:29:26;2.00;99.90
5978;DHT22;3015;51.390;12.256;2023-03-01T17:31:52;1.80;99.90
5978;DHT22;3015;51.390;12.256;2023-03-01T17:34:21;1.70;99.90
5978;DHT22;3015;51.390;12.256;2023-03-01T17:36:46;1.50;99.90
5978;DHT22;3015;51.390;12.256;2023-03-01T17:39:15;1.30;99.90
5978;DHT22;3015;51.390;12.256;2023-03-01T17:41:41;1.20;99.90
5978;DHT22;3015;51.390;12.256;2023-03-01T17:44:07;1.00;99.90
5978;DHT22;3015;51.390;12.256;2023-03-01T17:46:33;0.90;99.90
5978;DHT22;3015;51.390;12.256;2023-03-01T17:48:58;0.70;99.90
5978;DHT22;3015;51.390;12.256;2023-03-01T17:51:24;0.60;99.90
5978;DHT22;3015;51.390;12.256;2023-03-01T17:53:50;0.60;99.90
5978;DHT22;3015;51.390;12.256;2023-03-01T17:56:16;0.40;99.90
5978;DHT22;3015;51.390;12.256;2023-03-01T17:58:41;0.20;99.90
5978;DHT22;3015;51.390;12.256;2023-03-01T18:01:19;0.10;99.90
5978;DHT22;3015;51.390;12.256;2023-03-01T18:03:46;0.00;99.90
5978;DHT22;3015;51.390;12.256;2023-03-01T18:06:21;-0.10;99.90
5978;DHT22;3015;51.390;12.256;2023-03-01T18:08:47;-0.30;99.90
5978;DHT22;3015;51.390;12.256;2023-03-01T18:11:16;-0.40;99.90
5978;DHT22;3015;51.390;12.256;2023-03-01T18:13:42;-0.50;99.90
5978;DHT22;3015;51.390;12.256;2023-03-01T18:16:10;-0.60;99.90
5978;DHT22;3015;51.390;12.256;2023-03-01T18:18:36;-0.70;99.90
5978;DHT22;3015;51.390;12.256;2023-03-01T18:21:02;-0.80;99.90
5978;DHT22;3015;51.390;12.256;2023-03-01T18:23:29;-0.90;99.90
5978;DHT22;3015;51.390;12.256;2023-03-01T18:26:03;-0.90;99.90
5978;DHT22;3015;51.390;12.256;2023-03-01T18:28:30;-1.00;99.90
5978;DHT22;3015;51.390;12.256;2023-03-01T18:30:57;-1.10;99.90
5978;DHT22;3015;51.390;12.256;2023-03-01T18:33:23;-1.20;99.90
5978;DHT22;3015;51.390;12.256;2023-03-01T18:35:49;-1.30;99.90
5978;DHT22;3015;51.390;12.256;2023-03-01T18:38:15;-1.30;99.90
5978;DHT22;3015;51.390;12.256;2023-03-01T18:40:42;-1.40;99.90
5978;DHT22;3015;51.390;12.256;2023-03-01T18:43:08;-1.40;99.90
5978;DHT22;3015;51.390;12.256;2023-03-01T18:45:33;-1.40;99.90
5978;DHT22;3015;51.390;12.256;2023-03-01T18:47:59;-1.40;99.90
5978;DHT22;3015;51.390;12.256;2023-03-01T18:50:25;-1.50;99.90